Time;durP1;ratioP1;P1;durP2;ratioP2;P2;SDS_P1;SDS_P2;PMS_P1;PMS_P2;Temp;Humidity;BMP_temperature;BMP_pressure;BME280_temperature;BME280_humidity;BME280_pressure;Samples;Min_cycle;Max_cycle;Signal;HPM_P1;HPM_P2
2022/07/25 00:01:24;;;;;;;8.60;6.82;;;;;;;20.54;72.43;100959.59;5042567;28;20064;-67
2022/07/25 00:03:49;;;;;;;8.02;6.82;;;;;;;20.55;72.41;100954.94;5028481;28;20033;-65
2022/07/25 00:06:15;;;;;;;8.25;6.63;;;;;;;20.49;73.09;100953.75;5026884;28;20402;-65
2022/07/25 00:08:40;;;;;;;10.20;7.05;;;;;;;20.49;72.96;100948.22;5028236;28;20052;-65
2022/07/25 00:11:05;;;;;;;9.02;6.65;;;;;;;20.47;72.46;100946.59;5027522;28;20037;-65
2022/07/25 00:13:31;;;;;;;7.43;6.50;;;;;;;20.45;72.79;100944.03;5042937;28;20049;-65
2022/07/25 00:15:56;;;;;;;11.55;7.00;;;;;;;20.42;72.60;100935.22;5035911;28;20038;-64
2022/07/25 00:18:21;;;;;;;9.00;7.25;;;;;;;20.37;73.81;100938.50;5027939;28;20090;-66
2022/07/25 00:20:47;;;;;;;8.40;6.88;;;;;;;20.34;73.47;100936.09;5039682;28;20061;-64
2022/07/25 00:23:12;;;;;;;11.65;7.00;;;;;;;20.29;73.47;100936.63;5027758;28;20041;-65
2022/07/25 00:25:37;;;;;;;12.75;6.72;;;;;;;20.27;74.31;100935.91;5027217;28;20481;-65
2022/07/25 00:28:03;;;;;;;10.70;7.00;;;;;;;20.23;73.60;100931.75;5027895;28;20454;-65
2022/07/25 00:30:28;;;;;;;10.30;7.00;;;;;;;20.22;73.58;100927.28;5027089;28;20500;-65
2022/07/25 00:32:54;;;;;;;10.23;7.65;;;;;;;20.18;74.38;100922.25;5027145;28;20629;-66
2022/07/25 00:35:19;;;;;;;12.70;6.57;;;;;;;20.15;74.05;100923.47;5027075;28;20481;-66
2022/07/25 00:37:44;;;;;;;10.25;7.15;;;;;;;20.10;74.33;100912.94;5026776;28;20091;-66
2022/07/25 00:40:10;;;;;;;7.97;6.53;;;;;;;20.10;73.54;100915.72;5027392;28;20033;-66
2022/07/25 00:42:36;;;;;;;8.20;6.55;;;;;;;20.09;73.74;100911.19;5033707;28;20041;-65
2022/07/25 00:45:02;;;;;;;9.77;7.28;;;;;;;20.07;74.19;100916.03;5046844;28;20083;-68
2022/07/25 00:47:27;;;;;;;11.63;6.85;;;;;;;20.04;73.86;100901.69;5026927;28;20021;-65
2022/07/25 00:49:53;;;;;;;12.68;7.60;;;;;;;20.04;73.99;100907.22;5025594;28;20044;-67
2022/07/25 00:52:18;;;;;;;11.55;7.18;;;;;;;20.01;73.80;100902.06;5027039;28;20355;-65
2022/07/25 00:54:44;;;;;;;11.43;7.50;;;;;;;19.98;73.97;100902.41;5046921;28;20068;-66
2022/07/25 00:57:09;;;;;;;12.32;7.82;;;;;;;19.90;75.16;100900.47;5047100;28;20495;-67
2022/07/25 00:59:35;;;;;;;11.00;8.07;;;;;;;19.87;74.47;100895.31;5046900;28;20110;-65
2022/07/25 01:02:00;;;;;;;11.85;8.40;;;;;;;19.85;74.64;100892.72;5030291;28;20033;-65
2022/07/25 01:04:25;;;;;;;8.90;7.78;;;;;;;19.84;74.74;100888.22;5025994;28;20041;-66
2022/07/25 01:06:51;;;;;;;12.20;8.30;;;;;;;19.87;74.21;100887.03;5026930;28;20037;-67
2022/07/25 01:09:17;;;;;;;10.38;7.72;;;;;;;19.85;74.38;100880.81;5026860;28;20048;-66
2022/07/25 01:11:43;;;;;;;11.73;7.93;;;;;;;19.80;74.24;100874.94;5026851;28;20453;-65
2022/07/25 01:14:08;;;;;;;13.55;8.13;;;;;;;19.75;75.05;100875.44;5045214;28;20041;-65
2022/07/25 01:16:34;;;;;;;13.35;7.88;;;;;;;19.72;74.91;100867.47;5033660;28;20448;-66
2022/07/25 01:18:59;;;;;;;10.20;7.38;;;;;;;19.69;73.93;100864.22;5025846;28;20041;-66
2022/07/25 01:21:25;;;;;;;14.80;7.63;;;;;;;19.67;74.72;100864.38;5025397;28;20445;-66
2022/07/25 01:23:51;;;;;;;14.68;7.93;;;;;;;19.62;74.17;100862.13;5027442;28;20060;-66
2022/07/25 01:26:16;;;;;;;12.63;7.78;;;;;;;19.64;74.41;100863.88;5026500;28;20061;-69
2022/07/25 01:28:42;;;;;;;10.57;7.75;;;;;;;19.62;74.82;100858.50;5026540;28;20491;-65
2022/07/25 01:31:07;;;;;;;10.02;7.65;;;;;;;19.59;75.28;100850.56;5025897;28;20126;-65
2022/07/25 01:33:32;;;;;;;10.80;7.90;;;;;;;19.57;73.80;100856.22;5028360;28;20052;-65
2022/07/25 01:35:58;;;;;;;10.98;7.80;;;;;;;19.57;74.73;100853.47;5024882;28;20069;-65
2022/07/25 01:38:23;;;;;;;10.82;8.23;;;;;;;19.52;75.10;100846.72;5026920;28;20508;-71
2022/07/25 01:40:48;;;;;;;9.73;7.65;;;;;;;19.51;75.11;100851.38;5026409;28;20083;-69
2022/07/25 01:43:14;;;;;;;13.60;7.82;;;;;;;19.50;74.73;100843.28;5044235;28;20438;-67
2022/07/25 01:45:39;;;;;;;11.73;8.23;;;;;;;19.50;74.85;100846.91;5043041;28;20029;-66
2022/07/25 01:48:05;;;;;;;11.48;7.68;;;;;;;19.47;74.67;100840.84;5040956;28;20029;-65
2022/07/25 01:50:30;;;;;;;12.00;8.48;;;;;;;19.48;74.27;100831.53;5024728;28;20045;-65
2022/07/25 01:52:56;;;;;;;11.85;7.70;;;;;;;19.46;75.40;100830.84;5026065;28;20041;-65
2022/07/25 01:55:21;;;;;;;12.50;8.15;;;;;;;19.42;75.55;100833.09;5026236;28;20029;-65
2022/07/25 01:57:46;;;;;;;9.35;8.13;;;;;;;19.34;75.79;100816.50;5028067;28;20132;-65
2022/07/25 02:00:13;;;;;;;11.57;7.78;;;;;;;19.34;75.23;100822.88;5025415;28;20465;-67
2022/07/25 02:02:41;;;;;;;10.52;7.55;;;;;;;19.33;75.29;100818.41;5025864;28;20401;-67
2022/07/25 02:05:07;;;;;;;11.00;8.27;;;;;;;19.36;75.30;100818.06;5025194;28;20071;-65
2022/07/25 02:07:33;;;;;;;12.70;8.43;;;;;;;19.36;75.76;100814.47;5025539;28;20040;-65
2022/07/25 02:09:58;;;;;;;9.57;8.30;;;;;;;19.40;74.76;100810.34;5025691;28;20029;-66
2022/07/25 02:12:24;;;;;;;11.48;8.18;;;;;;;19.38;75.33;100810.47;5031196;28;20072;-66
2022/07/25 02:14:49;;;;;;;10.55;8.23;;;;;;;19.34;76.36;100803.56;5035267;28;20044;-65
2022/07/25 02:17:15;;;;;;;11.35;8.40;;;;;;;19.38;75.78;100813.25;5025700;28;20045;-65
2022/07/25 02:19:40;;;;;;;10.35;7.68;;;;;;;19.40;75.27;100807.56;5024340;28;20323;-66
2022/07/25 02:22:06;;;;;;;14.27;7.63;;;;;;;19.42;75.23;100804.63;5025401;28;20033;-65
2022/07/25 02:24:31;;;;;;;10.73;7.50;;;;;;;19.41;74.74;100801.00;5025776;28;20041;-66
2022/07/25 02:26:57;;;;;;;10.68;8.00;;;;;;;19.37;76.08;100799.63;5025183;28;20018;-67
2022/07/25 02:29:23;;;;;;;12.00;7.50;;;;;;;19.38;75.51;100804.09;5025689;28;20045;-65
2022/07/25 02:31:48;;;;;;;9.20;7.07;;;;;;;19.37;74.98;100803.25;5023620;28;20048;-65
2022/07/25 02:34:14;;;;;;;12.90;7.85;;;;;;;19.34;75.77;100786.16;5024241;28;20165;-65
2022/07/25 02:36:39;;;;;;;10.23;7.60;;;;;;;19.33;75.02;100795.47;5039977;28;20053;-65
2022/07/25 02:39:04;;;;;;;12.32;7.03;;;;;;;19.29;75.55;100777.53;5025354;28;20116;-65
2022/07/25 02:41:30;;;;;;;10.88;7.47;;;;;;;19.29;74.77;100786.66;5034971;28;20033;-65
2022/07/25 02:43:55;;;;;;;10.50;6.78;;;;;;;19.27;75.36;100787.88;5026480;28;20053;-67
2022/07/25 02:46:20;;;;;;;9.25;7.03;;;;;;;19.22;75.94;100777.34;5025320;28;20162;-65
2022/07/25 02:48:46;;;;;;;11.90;8.32;;;;;;;19.21;75.38;100774.75;5024786;28;20060;-65
2022/07/25 02:51:12;;;;;;;12.77;7.30;;;;;;;19.19;75.24;100772.16;5024395;28;20027;-65
2022/07/25 02:53:37;;;;;;;10.27;7.38;;;;;;;19.19;75.06;100774.94;5024106;28;20477;-66
2022/07/25 02:56:03;;;;;;;11.98;8.32;;;;;;;19.17;75.92;100770.63;5025268;28;20037;-66
2022/07/25 02:58:28;;;;;;;12.13;7.97;;;;;;;19.16;75.86;100771.63;5025160;28;20029;-65
2022/07/25 03:00:53;;;;;;;8.73;6.85;;;;;;;19.14;75.06;100769.06;5024327;28;20072;-69
2022/07/25 03:03:19;;;;;;;9.27;7.28;;;;;;;19.13;75.04;100772.84;5025472;28;20033;-65
2022/07/25 03:05:44;;;;;;;10.40;7.53;;;;;;;19.08;75.45;100775.25;5022952;28;20762;-64
2022/07/25 03:08:09;;;;;;;10.25;7.32;;;;;;;19.04;75.54;100771.09;5029322;28;20675;-64
2022/07/25 03:10:35;;;;;;;11.52;8.50;;;;;;;19.02;74.98;100759.34;5028985;28;20477;-66
2022/07/25 03:13:01;;;;;;;9.70;7.10;;;;;;;18.99;75.16;100752.31;5040038;28;20078;-65
2022/07/25 03:15:26;;;;;;;10.00;6.90;;;;;;;18.97;75.91;100750.72;5033227;28;20024;-64
2022/07/25 03:17:51;;;;;;;12.52;7.90;;;;;;;18.96;76.07;100746.25;5029244;28;20034;-65
2022/07/25 03:20:17;;;;;;;9.70;7.43;;;;;;;18.98;75.19;100749.69;5028312;28;20037;-64
2022/07/25 03:22:42;;;;;;;11.10;7.43;;;;;;;18.94;76.25;100749.19;5028589;28;20040;-65
2022/07/25 03:25:08;;;;;;;12.65;7.18;;;;;;;18.95;75.37;100742.63;5027686;28;20511;-65
2022/07/25 03:27:33;;;;;;;8.13;6.85;;;;;;;18.96;75.68;100744.34;5028826;28;20544;-67
2022/07/25 03:29:59;;;;;;;11.27;8.00;;;;;;;18.97;75.18;100745.22;5028113;28;20037;-67
2022/07/25 03:32:24;;;;;;;9.88;7.38;;;;;;;18.98;74.24;100744.19;5028568;28;20505;-65
2022/07/25 03:34:50;;;;;;;13.27;8.57;;;;;;;18.96;75.27;100747.13;5028174;28;20029;-66
2022/07/25 03:37:15;;;;;;;10.55;7.40;;;;;;;18.93;75.81;100743.81;5026437;28;20053;-66
2022/07/25 03:39:40;;;;;;;8.77;7.20;;;;;;;18.93;75.63;100744.72;5028482;28;20044;-65
2022/07/25 03:42:06;;;;;;;14.02;7.88;;;;;;;18.92;75.34;100742.09;5027422;28;20533;-65
2022/07/25 03:44:31;;;;;;;12.63;7.82;;;;;;;18.94;75.12;100751.94;5027881;28;20045;-67
2022/07/25 03:46:57;;;;;;;12.80;7.45;;;;;;;18.93;76.07;100752.09;5028392;28;20104;-65
2022/07/25 03:49:22;;;;;;;12.48;8.50;;;;;;;18.95;75.31;100742.63;5033606;28;20059;-65
2022/07/25 03:51:47;;;;;;;10.82;7.82;;;;;;;18.99;74.86;100740.41;5027859;28;20041;-65
2022/07/25 03:54:13;;;;;;;9.75;7.22;;;;;;;19.01;74.63;100741.09;5028359;28;20559;-65
2022/07/25 03:56:45;;;;;;;11.48;7.50;;;;;;;19.00;75.37;100750.41;5028527;28;20502;-65
2022/07/25 03:59:13;;;;;;;10.60;7.70;;;;;;;18.93;76.30;100738.31;5027622;28;20219;-65
2022/07/25 04:01:39;;;;;;;12.90;7.38;;;;;;;18.92;75.66;100736.59;5028137;28;20528;-65
2022/07/25 04:04:04;;;;;;;9.70;7.03;;;;;;;18.89;76.91;100726.78;5027801;28;20132;-66
2022/07/25 04:06:30;;;;;;;12.73;7.95;;;;;;;18.90;76.49;100727.63;5027523;28;20069;-65
2022/07/25 04:08:57;;;;;;;9.40;7.95;;;;;;;18.97;74.02;100726.78;5028274;28;20126;-65
2022/07/25 04:11:23;;;;;;;11.35;7.82;;;;;;;18.97;76.29;100721.25;5028733;28;20057;-65
2022/07/25 04:13:49;;;;;;;12.27;8.00;;;;;;;18.98;75.73;100725.78;5028818;28;20061;-66
2022/07/25 04:16:15;;;;;;;13.10;7.90;;;;;;;18.99;76.41;100723.88;5027411;28;20511;-65
2022/07/25 04:18:41;;;;;;;10.05;7.20;;;;;;;18.98;76.61;100723.00;5026217;28;20037;-68
2022/07/25 04:21:07;;;;;;;12.18;6.82;;;;;;;19.00;77.26;100722.84;5026715;28;20021;-65
2022/07/25 04:23:32;;;;;;;9.93;7.15;;;;;;;19.04;76.29;100718.72;5026748;28;20098;-66
2022/07/25 04:25:57;;;;;;;12.30;7.40;;;;;;;19.06;75.85;100719.38;5028000;28;20091;-66
2022/07/25 04:28:24;;;;;;;10.50;6.70;;;;;;;19.11;76.14;100717.84;5028033;28;20045;-67
2022/07/25 04:30:50;;;;;;;12.38;7.28;;;;;;;19.17;75.55;100712.72;5027245;28;20037;-66
2022/07/25 04:33:16;;;;;;;10.43;6.95;;;;;;;19.18;75.03;100723.56;5030577;28;20049;-67
2022/07/25 04:35:41;;;;;;;10.85;7.40;;;;;;;19.20;74.20;100728.91;5025677;28;20044;-65
2022/07/25 04:38:07;;;;;;;9.57;6.55;;;;;;;19.34;72.75;100729.06;5027258;28;20057;-66
2022/07/25 04:40:32;;;;;;;9.98;7.25;;;;;;;19.42;72.92;100735.66;5027566;28;20369;-65
2022/07/25 04:42:58;;;;;;;11.80;7.55;;;;;;;19.46;74.32;100737.03;5033206;28;20128;-65
2022/07/25 04:45:23;;;;;;;21.63;7.97;;;;;;;19.53;71.93;100730.63;5027137;28;20048;-69
2022/07/25 04:47:49;;;;;;;9.90;7.05;;;;;;;19.66;70.55;100729.31;5027802;28;20038;-64
2022/07/25 04:50:15;;;;;;;10.07;6.68;;;;;;;19.72;72.41;100717.56;5040814;28;20034;-65
2022/07/25 04:52:41;;;;;;;11.25;6.85;;;;;;;19.78;72.41;100719.66;5026928;28;20072;-68
2022/07/25 04:55:07;;;;;;;12.63;6.93;;;;;;;19.83;69.75;100708.94;5027248;28;20072;-65
2022/07/25 04:57:32;;;;;;;11.13;6.63;;;;;;;19.85;71.87;100712.38;5027185;28;20029;-67
2022/07/25 04:59:57;;;;;;;10.75;7.45;;;;;;;19.88;71.34;100720.31;5026741;28;20116;-66
2022/07/25 05:02:24;;;;;;;9.90;6.70;;;;;;;19.92;70.81;100718.94;5027262;28;20037;-66
2022/07/25 05:04:50;;;;;;;9.80;6.82;;;;;;;19.93;70.08;100720.66;5026212;28;20148;-66
2022/07/25 05:07:15;;;;;;;10.32;6.93;;;;;;;19.98;71.30;100714.59;5026784;28;20112;-65
2022/07/25 05:09:41;;;;;;;9.98;7.07;;;;;;;19.98;71.13;100717.38;5027383;28;20060;-64
2022/07/25 05:12:06;;;;;;;9.40;6.65;;;;;;;20.05;71.24;100722.03;5032324;28;20035;-65
2022/07/25 05:14:31;;;;;;;9.20;6.82;;;;;;;20.13;69.27;100719.22;5039126;28;20069;-66
2022/07/25 05:16:57;;;;;;;9.40;7.10;;;;;;;20.19;70.53;100722.31;5026448;28;20029;-64
2022/07/25 05:19:22;;;;;;;9.25;6.38;;;;;;;20.26;69.13;100729.72;5025671;28;20032;-65
2022/07/25 05:21:48;;;;;;;13.35;7.72;;;;;;;20.30;70.20;100728.34;5026557;28;20064;-66
2022/07/25 05:24:13;;;;;;;10.82;7.47;;;;;;;20.38;69.59;100730.22;5026273;28;20532;-64
2022/07/25 05:26:38;;;;;;;12.48;7.38;;;;;;;20.42;70.15;100727.94;5026725;28;20037;-67
2022/07/25 05:29:04;;;;;;;10.43;7.82;;;;;;;20.49;68.59;100712.41;5025737;28;20091;-66
2022/07/25 05:31:29;;;;;;;15.38;7.57;;;;;;;20.51;70.45;100721.38;5026288;28;20022;-65
2022/07/25 05:33:54;;;;;;;13.00;7.82;;;;;;;20.57;68.02;100721.53;5025943;28;20041;-67
2022/07/25 05:36:20;;;;;;;11.00;7.22;;;;;;;20.66;69.13;100722.38;5025092;28;20481;-65
2022/07/25 05:38:45;;;;;;;12.85;7.38;;;;;;;20.75;68.05;100728.69;5026661;28;20653;-65
2022/07/25 05:41:10;;;;;;;10.90;8.07;;;;;;;20.78;69.13;100725.59;5032171;28;20041;-65
2022/07/25 05:43:36;;;;;;;11.23;7.90;;;;;;;20.88;68.17;100732.59;5041978;28;20052;-66
2022/07/25 05:46:03;;;;;;;12.02;7.85;;;;;;;20.97;67.63;100740.84;5036834;28;20034;-64
2022/07/25 05:48:29;;;;;;;14.07;8.52;;;;;;;21.04;68.01;100733.56;5026001;28;20029;-64
2022/07/25 05:50:54;;;;;;;10.38;7.85;;;;;;;21.06;67.86;100726.78;5024538;28;20231;-66
2022/07/25 05:53:19;;;;;;;14.10;7.68;;;;;;;21.14;67.61;100735.06;5026462;28;20029;-66
2022/07/25 05:55:45;;;;;;;12.95;8.40;;;;;;;21.17;66.96;100721.88;5025967;28;20044;-66
2022/07/25 05:58:10;;;;;;;12.38;7.95;;;;;;;21.20;68.30;100730.69;5026146;28;20052;-66
2022/07/25 06:00:36;;;;;;;12.05;8.13;;;;;;;21.20;67.75;100744.53;5034243;28;20122;-66
2022/07/25 06:03:02;;;;;;;13.73;8.50;;;;;;;21.19;68.06;100750.25;5041342;28;20072;-66
2022/07/25 06:05:27;;;;;;;15.18;8.13;;;;;;;21.18;66.53;100746.63;5029332;28;20029;-66
2022/07/25 06:07:52;;;;;;;12.43;8.07;;;;;;;21.23;66.83;100754.38;5026470;28;20637;-65
2022/07/25 06:10:18;;;;;;;15.38;8.27;;;;;;;21.26;68.08;100754.84;5025641;28;20045;-65
2022/07/25 06:12:43;;;;;;;13.43;8.55;;;;;;;21.26;67.51;100754.84;5040725;28;20033;-65
2022/07/25 06:15:09;;;;;;;11.40;7.32;;;;;;;21.30;67.60;100766.41;5025216;28;20049;-66
2022/07/25 06:17:34;;;;;;;10.00;7.90;;;;;;;21.27;66.81;100753.81;5042561;28;20480;-66
2022/07/25 06:20:00;;;;;;;11.55;7.95;;;;;;;21.28;66.47;100750.00;5036635;28;20044;-65
2022/07/25 06:22:25;;;;;;;9.05;7.82;;;;;;;21.24;67.10;100750.56;5044106;28;20095;-65
2022/07/25 06:24:51;;;;;;;10.15;7.70;;;;;;;21.18;67.37;100749.38;5040198;28;20222;-66
2022/07/25 06:27:16;;;;;;;11.43;7.47;;;;;;;21.18;66.94;100756.84;5025665;28;20042;-66
2022/07/25 06:29:41;;;;;;;10.35;7.55;;;;;;;21.24;67.71;100758.84;5025704;28;20049;-66
2022/07/25 06:32:07;;;;;;;11.45;8.13;;;;;;;21.27;67.37;100759.38;5041794;28;20561;-66
2022/07/25 06:34:32;;;;;;;11.18;7.03;;;;;;;21.32;67.22;100753.31;5035992;28;20115;-65
2022/07/25 06:36:58;;;;;;;10.48;7.72;;;;;;;21.35;66.75;100767.63;5041545;28;20485;-65
2022/07/25 06:39:24;;;;;;;11.73;7.13;;;;;;;21.39;66.57;100763.44;5043715;28;20485;-67
2022/07/25 06:41:50;;;;;;;12.27;7.45;;;;;;;21.47;67.09;100754.22;5044432;28;20036;-65
2022/07/25 06:44:16;;;;;;;9.77;6.85;;;;;;;21.54;66.15;100757.09;5026320;28;20032;-66
2022/07/25 06:46:41;;;;;;;13.25;7.03;;;;;;;21.65;65.76;100749.25;5024245;28;20037;-66
2022/07/25 06:49:07;;;;;;;14.57;6.88;;;;;;;21.76;65.89;100761.78;5031582;28;20044;-66
2022/07/25 06:51:32;;;;;;;10.30;6.72;;;;;;;21.86;65.69;100761.53;5037324;28;20049;-67
2022/07/25 06:53:58;;;;;;;11.10;6.85;;;;;;;21.87;66.17;100761.34;5045155;28;20392;-65
2022/07/25 06:56:23;;;;;;;9.52;6.72;;;;;;;21.88;64.66;100759.44;5045568;28;20124;-64
2022/07/25 06:58:49;;;;;;;11.77;6.47;;;;;;;21.88;64.93;100757.53;5039990;28;20116;-66
2022/07/25 07:01:14;;;;;;;7.35;6.22;;;;;;;21.83;65.52;100751.69;5040690;28;20064;-65
2022/07/25 07:03:40;;;;;;;9.23;5.85;;;;;;;21.82;65.59;100755.53;5040983;28;20044;-67
2022/07/25 07:06:11;;;;;;;6.85;5.20;;;;;;;21.83;66.97;100751.69;5041416;28;20025;-65
2022/07/25 07:08:36;;;;;;;6.28;4.75;;;;;;;21.91;65.99;100759.03;5041390;28;20045;-65
2022/07/25 07:11:03;;;;;;;8.88;4.72;;;;;;;21.97;66.71;100755.53;5040825;28;20395;-65
2022/07/25 07:13:28;;;;;;;9.45;5.20;;;;;;;22.04;66.11;100762.03;5042939;28;20139;-65
2022/07/25 07:15:54;;;;;;;11.40;5.10;;;;;;;22.11;66.11;100753.84;5037752;28;20180;-65
2022/07/25 07:18:20;;;;;;;7.05;4.80;;;;;;;22.22;64.15;100761.72;5041224;28;20048;-66
2022/07/25 07:20:46;;;;;;;7.03;4.70;;;;;;;22.34;65.06;100756.59;5040560;28;20033;-65
2022/07/25 07:23:12;;;;;;;10.52;5.30;;;;;;;22.41;64.74;100757.53;5043351;28;20033;-68
2022/07/25 07:25:37;;;;;;;7.57;3.95;;;;;;;22.62;64.47;100756.78;5041199;28;20036;-67
2022/07/25 07:28:03;;;;;;;7.03;4.80;;;;;;;22.76;63.79;100753.13;5044454;28;20029;-66
2022/07/25 07:30:29;;;;;;;8.00;4.60;;;;;;;22.84;63.54;100758.56;5039537;28;20048;-66
2022/07/25 07:32:55;;;;;;;4.63;4.07;;;;;;;22.96;63.58;100750.66;5041037;28;20040;-66
2022/07/25 07:35:20;;;;;;;6.93;4.13;;;;;;;23.09;64.37;100750.81;5039901;28;20428;-66
2022/07/25 07:37:46;;;;;;;6.68;3.88;;;;;;;23.24;63.70;100759.09;5041631;28;20126;-65
2022/07/25 07:40:13;;;;;;;6.18;3.83;;;;;;;23.26;62.88;100756.97;5043095;28;20025;-66
2022/07/25 07:42:40;;;;;;;7.28;3.95;;;;;;;23.29;62.87;100758.50;5033056;28;20472;-65
2022/07/25 07:45:11;;;;;;;8.95;3.20;;;;;;;23.16;62.80;100760.06;5038511;28;20041;-67
2022/07/25 07:47:36;;;;;;;4.43;3.00;;;;;;;23.22;62.84;100768.66;5024190;28;20060;-65
2022/07/25 07:50:02;;;;;;;6.47;2.97;;;;;;;23.22;63.72;100763.09;5032087;28;20036;-66
2022/07/25 07:52:27;;;;;;;7.68;2.67;;;;;;;23.40;63.58;100766.31;5046279;28;20037;-66
2022/07/25 07:57:36;;;;;;;9.15;2.50;;;;;;;23.85;62.48;100769.78;5046384;28;20478;-65
2022/07/25 08:00:03;;;;;;;7.20;2.40;;;;;;;24.00;63.11;100767.78;5045790;28;20021;-65
2022/07/25 08:02:45;;;;;;;4.93;2.10;;;;;;;24.10;61.69;100779.41;5044438;28;20584;-65
2022/07/25 08:05:12;;;;;;;6.88;2.10;;;;;;;24.17;62.31;100776.69;5043394;28;20032;-65
2022/07/25 08:07:37;;;;;;;4.43;2.05;;;;;;;24.17;61.11;100779.47;5047576;28;20021;-66
2022/07/25 08:10:03;;;;;;;5.85;2.00;;;;;;;24.26;62.10;100763.50;5047718;28;20024;-65
2022/07/25 08:12:28;;;;;;;5.13;1.55;;;;;;;24.31;60.80;100772.09;5044002;28;20120;-65
2022/07/25 08:14:54;;;;;;;6.90;2.08;;;;;;;24.64;61.33;100773.19;5031742;28;20073;-68
2022/07/25 08:17:19;;;;;;;3.28;1.98;;;;;;;25.21;60.18;100775.84;5044856;28;20024;-66
2022/07/25 08:19:44;;;;;;;4.97;1.63;;;;;;;25.51;58.60;100773.56;5040583;28;20025;-67
2022/07/25 08:22:10;;;;;;;8.25;2.28;;;;;;;25.57;58.40;100779.16;5045440;28;20108;-65
2022/07/25 08:24:35;;;;;;;7.95;1.52;;;;;;;25.50;59.58;100771.84;5036307;28;20202;-67
2022/07/25 08:27:00;;;;;;;3.85;1.50;;;;;;;25.48;58.57;100771.22;5027948;28;20036;-66
2022/07/25 08:29:26;;;;;;;5.32;1.92;;;;;;;25.28;58.50;100771.16;5028012;28;20030;-65
2022/07/25 08:31:51;;;;;;;6.43;1.73;;;;;;;25.21;58.71;100773.91;5027742;28;20029;-65
2022/07/25 08:34:18;;;;;;;3.33;1.52;;;;;;;25.26;58.06;100770.50;5025930;28;20064;-67
2022/07/25 08:36:43;;;;;;;6.47;1.65;;;;;;;25.14;59.58;100779.47;5042472;28;20079;-64
2022/07/25 08:39:09;;;;;;;3.17;1.35;;;;;;;25.24;58.90;100786.56;5046337;28;20029;-65
2022/07/25 08:41:34;;;;;;;4.60;1.38;;;;;;;25.68;58.60;100784.09;5043790;28;20049;-67
2022/07/25 08:44:01;;;;;;;5.78;1.70;;;;;;;26.18;57.85;100781.81;5041724;28;20036;-67
2022/07/25 08:46:28;;;;;;;5.88;1.38;;;;;;;26.48;55.30;100780.50;5042652;28;20033;-66
2022/07/25 08:48:55;;;;;;;4.75;1.40;;;;;;;26.79;53.99;100772.28;5037946;28;20031;-67
2022/07/25 08:51:21;;;;;;;6.20;1.42;;;;;;;26.98;55.85;100769.66;5043501;28;20496;-64
2022/07/25 08:53:47;;;;;;;6.32;1.50;;;;;;;27.19;55.17;100772.19;5045988;28;20049;-65
2022/07/25 08:56:12;;;;;;;2.80;1.10;;;;;;;27.46;54.53;100775.66;5043039;28;20041;-65
2022/07/25 08:58:38;;;;;;;4.95;1.10;;;;;;;27.62;53.56;100779.88;5045891;28;20041;-65
2022/07/25 09:01:04;;;;;;;3.15;1.38;;;;;;;27.72;53.75;100785.84;5042897;28;20043;-66
2022/07/25 09:03:29;;;;;;;5.20;1.20;;;;;;;27.43;51.51;100782.56;5026043;28;20119;-65
2022/07/25 09:05:55;;;;;;;6.32;1.30;;;;;;;27.15;52.71;100787.66;5026195;28;20465;-68
2022/07/25 09:08:20;;;;;;;5.13;1.40;;;;;;;26.75;53.56;100787.75;5028092;28;20033;-67
2022/07/25 09:10:50;;;;;;;3.65;1.38;;;;;;;26.81;56.04;100786.00;5046023;28;20037;-66
2022/07/25 09:13:17;;;;;;;3.78;1.40;;;;;;;27.02;54.78;100787.69;5040025;28;20776;-65
2022/07/25 09:15:46;;;;;;;4.22;1.48;;;;;;;27.41;53.47;100784.72;5025853;28;20033;-66
2022/07/25 09:18:13;;;;;;;7.35;1.63;;;;;;;27.89;53.54;100787.03;5026906;28;20041;-65
2022/07/25 09:20:45;;;;;;;6.18;1.45;;;;;;;28.13;52.46;100793.72;5025557;28;20060;-65
2022/07/25 09:23:13;;;;;;;4.20;1.40;;;;;;;28.39;52.27;100791.78;5035295;28;20037;-66
2022/07/25 09:25:39;;;;;;;6.85;1.75;;;;;;;28.43;51.34;100793.03;5044104;28;20037;-65
2022/07/25 09:28:15;;;;;;;6.65;1.77;;;;;;;28.41;51.45;100800.84;5040489;28;20028;-64
2022/07/25 09:30:55;;;;;;;3.00;1.35;;;;;;;28.59;51.67;100806.47;5037965;28;20139;-65
2022/07/25 09:33:23;;;;;;;5.85;1.75;;;;;;;28.46;49.53;100803.78;5043093;28;20044;-67
2022/07/25 09:35:49;;;;;;;6.65;1.60;;;;;;;28.60;51.81;100808.19;5041495;28;20033;-65
2022/07/25 09:38:16;;;;;;;5.88;1.90;;;;;;;28.67;49.38;100816.50;5033732;28;20106;-65
2022/07/25 09:40:53;;;;;;;7.53;1.80;;;;;;;28.94;49.07;100820.72;5026489;28;20033;-65
2022/07/25 09:43:18;;;;;;;6.28;1.73;;;;;;;29.06;48.51;100826.44;5040603;28;20063;-65
2022/07/25 09:45:49;;;;;;;6.10;2.35;;;;;;;29.26;48.79;100829.00;5029787;28;20041;-66
2022/07/25 09:48:17;;;;;;;6.45;1.48;;;;;;;29.33;48.05;100832.59;5026110;28;20111;-66
2022/07/25 09:50:43;;;;;;;7.30;1.83;;;;;;;29.15;47.38;100827.84;5024787;28;20033;-66
2022/07/25 09:53:08;;;;;;;8.32;1.98;;;;;;;29.25;49.53;100821.69;5041747;28;20207;-65
2022/07/25 09:55:33;;;;;;;4.50;2.00;;;;;;;29.19;45.80;100829.09;5025883;28;20033;-65
2022/07/25 09:57:59;;;;;;;5.82;2.13;;;;;;;29.12;46.79;100828.31;5025297;28;20037;-64
2022/07/25 10:00:26;;;;;;;3.30;2.10;;;;;;;29.45;47.90;100830.69;5038191;28;20188;-70
2022/07/25 10:03:00;;;;;;;6.60;2.28;;;;;;;29.64;47.00;100827.88;5042270;28;20502;-68
2022/07/25 10:05:49;;;;;;;4.38;2.17;;;;;;;29.82;48.26;100827.81;5024865;28;20045;-66
2022/07/25 10:08:17;;;;;;;7.07;2.40;;;;;;;29.85;46.38;100823.69;5026280;28;20045;-66
2022/07/25 10:10:42;;;;;;;5.50;2.10;;;;;;;29.92;46.26;100832.84;5026081;28;20084;-65
2022/07/25 10:13:14;;;;;;;8.82;2.58;;;;;;;30.25;46.83;100837.97;5038018;28;20610;-65
2022/07/25 10:15:50;;;;;;;;;;;;;;;30.41;47.15;100830.81;5039206;28;20052;-66
2022/07/25 10:18:20;;;;;;;3.88;2.05;;;;;;;29.77;45.58;100835.25;5025588;28;19971;-66
2022/07/25 10:20:48;;;;;;;4.75;1.65;;;;;;;30.18;47.78;100832.47;5024448;28;20099;-64
2022/07/25 10:23:23;;;;;;;8.20;2.00;;;;;;;30.56;46.23;100830.31;5026019;28;20025;-67
2022/07/25 10:26:18;;;;;;;3.83;2.00;;;;;;;30.56;44.59;100831.19;5025702;28;20489;-64
2022/07/25 10:28:49;;;;;;;7.53;2.38;;;;;;;30.21;44.66;100826.34;5017283;28;20060;-66
2022/07/25 10:31:17;;;;;;;6.20;2.35;;;;;;;30.13;44.17;100835.16;5024750;28;20056;-65
2022/07/25 10:33:42;;;;;;;3.65;1.88;;;;;;;30.05;42.75;100837.41;5037811;28;20579;-64
2022/07/25 10:36:09;;;;;;;5.57;2.08;;;;;;;29.86;43.34;100840.28;5037321;28;20041;-66
2022/07/25 10:38:39;;;;;;;4.47;1.95;;;;;;;29.92;42.79;100850.53;5042126;28;20076;-65
2022/07/25 10:41:07;;;;;;;4.93;1.65;;;;;;;30.03;43.06;100848.88;5044889;28;20052;-64
2022/07/25 10:43:38;;;;;;;4.95;1.73;;;;;;;30.04;44.00;100835.72;5043063;28;20493;-66
2022/07/25 10:46:18;;;;;;;6.45;2.08;;;;;;;30.31;44.86;100845.44;5033373;28;20060;-66
2022/07/25 10:48:44;;;;;;;6.88;1.98;;;;;;;30.47;43.40;100843.88;5039608;28;20499;-65
2022/07/25 10:51:12;;;;;;;4.35;1.52;;;;;;;30.08;43.33;100843.41;5023066;28;20124;-64
2022/07/25 10:53:48;;;;;;;5.72;1.90;;;;;;;30.02;44.86;100851.91;5040619;28;20053;-66
2022/07/25 10:56:21;;;;;;;7.63;1.63;;;;;;;30.13;44.03;100860.41;5042159;28;20032;-67
2022/07/25 10:58:58;;;;;;;4.60;2.10;;;;;;;30.26;42.68;100855.66;5044300;28;20060;-65
2022/07/25 11:01:32;;;;;;;6.43;2.60;;;;;;;30.20;43.17;100865.91;5039419;28;20086;-68
2022/07/25 11:04:00;;;;;;;7.28;2.13;;;;;;;29.96;44.03;100863.00;5039988;28;20037;-66
2022/07/25 11:06:39;;;;;;;6.97;2.10;;;;;;;29.69;43.58;100862.53;5041448;28;20167;-66
2022/07/25 11:09:26;;;;;;;5.13;2.25;;;;;;;29.38;43.80;100865.53;5040921;28;20631;-67
2022/07/25 11:11:54;;;;;;;5.53;2.50;;;;;;;29.36;43.59;100879.75;5041715;28;20524;-66
2022/07/25 11:14:22;;;;;;;5.68;2.22;;;;;;;29.25;43.71;100869.34;5042450;28;20120;-65
2022/07/25 11:16:49;;;;;;;4.13;2.28;;;;;;;28.96;43.07;100870.97;5042394;28;20041;-66
2022/07/25 11:19:26;;;;;;;4.93;2.88;;;;;;;28.84;44.22;100879.22;5028479;28;20258;-66
2022/07/25 11:21:55;;;;;;;5.30;2.75;;;;;;;28.59;43.78;100872.81;5025689;28;20136;-64